sensor_id;sensor_type;location;lat;lon;timestamp;pressure;altitude;pressure_sealevel;temperature;humidity
55801;BME280;41730;51.960;20.158;2023-02-26T00:01:22;98856.63;;;2.12;74.78
55801;BME280;41730;51.960;20.158;2023-02-26T00:03:58;98865.30;;;2.12;75.03
55801;BME280;41730;51.960;20.158;2023-02-26T00:06:34;98866.58;;;2.16;74.41
55801;BME280;41730;51.960;20.158;2023-02-26T00:09:08;98877.75;;;2.17;74.32
55801;BME280;41730;51.960;20.158;2023-02-26T00:11:40;98881.02;;;2.07;74.19
55801;BME280;41730;51.960;20.158;2023-02-26T00:14:16;98887.34;;;1.99;74.84
55801;BME280;41730;51.960;20.158;2023-02-26T00:17:08;98887.23;;;2.08;74.49
55801;BME280;41730;51.960;20.158;2023-02-26T00:19:49;98893.30;;;2.05;74.81
55801;BME280;41730;51.960;20.158;2023-02-26T00:22:23;98887.62;;;2.00;74.68
55801;BME280;41730;51.960;20.158;2023-02-26T00:24:55;98899.38;;;2.04;74.88
55801;BME280;41730;51.960;20.158;2023-02-26T00:27:28;98907.92;;;2.06;74.63
55801;BME280;41730;51.960;20.158;2023-02-26T00:30:02;98896.00;;;1.93;75.01
55801;BME280;41730;51.960;20.158;2023-02-26T00:32:37;98911.40;;;2.01;74.67
55801;BME280;41730;51.960;20.158;2023-02-26T00:35:14;98915.00;;;1.96;74.85
55801;BME280;41730;51.960;20.158;2023-02-26T00:37:59;98918.47;;;1.98;74.80
55801;BME280;41730;51.960;20.158;2023-02-26T00:40:45;98917.92;;;2.04;74.58
55801;BME280;41730;51.960;20.158;2023-02-26T00:43:23;98914.39;;;2.10;74.31
55801;BME280;41730;51.960;20.158;2023-02-26T00:46:01;98918.29;;;2.14;74.18
55801;BME280;41730;51.960;20.158;2023-02-26T00:48:45;98921.09;;;2.06;74.52
55801;BME280;41730;51.960;20.158;2023-02-26T00:51:22;98924.14;;;2.14;74.18
55801;BME280;41730;51.960;20.158;2023-02-26T00:54:04;98928.11;;;2.29;73.81
55801;BME280;41730;51.960;20.158;2023-02-26T00:56:40;98924.67;;;2.16;73.87
55801;BME280;41730;51.960;20.158;2023-02-26T00:59:16;98926.94;;;1.96;74.41
55801;BME280;41730;51.960;20.158;2023-02-26T01:01:51;98923.02;;;1.90;74.68
55801;BME280;41730;51.960;20.158;2023-02-26T01:04:27;98930.23;;;2.06;74.29
55801;BME280;41730;51.960;20.158;2023-02-26T01:07:01;98925.95;;;2.08;73.94
55801;BME280;41730;51.960;20.158;2023-02-26T01:09:38;98937.49;;;2.06;73.98
55801;BME280;41730;51.960;20.158;2023-02-26T01:12:13;98940.60;;;1.93;74.44
55801;BME280;41730;51.960;20.158;2023-02-26T01:14:48;98941.67;;;1.95;74.82
55801;BME280;41730;51.960;20.158;2023-02-26T01:17:25;98949.65;;;2.03;74.19
55801;BME280;41730;51.960;20.158;2023-02-26T01:20:04;98953.23;;;1.98;74.11
55801;BME280;41730;51.960;20.158;2023-02-26T01:22:43;98956.37;;;1.90;74.39
55801;BME280;41730;51.960;20.158;2023-02-26T01:25:24;98962.05;;;1.93;74.35
55801;BME280;41730;51.960;20.158;2023-02-26T01:27:57;98969.73;;;1.94;74.28
55801;BME280;41730;51.960;20.158;2023-02-26T01:30:34;98970.48;;;1.83;74.67
55801;BME280;41730;51.960;20.158;2023-02-26T01:33:13;98976.75;;;1.80;74.84
55801;BME280;41730;51.960;20.158;2023-02-26T01:35:51;98985.63;;;1.89;74.39
55801;BME280;41730;51.960;20.158;2023-02-26T01:38:30;98983.90;;;1.89;74.29
55801;BME280;41730;51.960;20.158;2023-02-26T01:41:19;98981.09;;;1.84;74.39
55801;BME280;41730;51.960;20.158;2023-02-26T01:44:02;98992.73;;;1.86;74.59
55801;BME280;41730;51.960;20.158;2023-02-26T01:46:42;99000.20;;;1.88;74.25
55801;BME280;41730;51.960;20.158;2023-02-26T01:49:18;99011.90;;;1.84;74.51
55801;BME280;41730;51.960;20.158;2023-02-26T01:51:52;99010.17;;;1.76;74.62
55801;BME280;41730;51.960;20.158;2023-02-26T01:54:27;99016.31;;;1.85;74.45
55801;BME280;41730;51.960;20.158;2023-02-26T01:57:03;99021.23;;;1.84;74.24
55801;BME280;41730;51.960;20.158;2023-02-26T01:59:40;99029.95;;;1.77;74.34
55801;BME280;41730;51.960;20.158;2023-02-26T02:02:17;99019.70;;;1.78;74.40
55801;BME280;41730;51.960;20.158;2023-02-26T02:04:50;99030.44;;;1.86;74.19
55801;BME280;41730;51.960;20.158;2023-02-26T02:07:23;99037.42;;;1.74;74.70
55801;BME280;41730;51.960;20.158;2023-02-26T02:09:55;99043.56;;;1.65;74.70
55801;BME280;41730;51.960;20.158;2023-02-26T02:12:34;99050.23;;;1.65;74.99
55801;BME280;41730;51.960;20.158;2023-02-26T02:15:12;99052.95;;;1.72;74.85
55801;BME280;41730;51.960;20.158;2023-02-26T02:17:52;99049.20;;;1.68;74.75
55801;BME280;41730;51.960;20.158;2023-02-26T02:20:58;99054.30;;;1.75;74.67
55801;BME280;41730;51.960;20.158;2023-02-26T02:23:41;99061.52;;;1.78;74.66
55801;BME280;41730;51.960;20.158;2023-02-26T02:29:49;99072.09;;;1.72;74.84
55801;BME280;41730;51.960;20.158;2023-02-26T02:32:24;99073.89;;;1.77;74.66
55801;BME280;41730;51.960;20.158;2023-02-26T02:35:05;99085.28;;;1.85;74.45
55801;BME280;41730;51.960;20.158;2023-02-26T02:37:42;99087.22;;;1.90;74.15
55801;BME280;41730;51.960;20.158;2023-02-26T02:40:21;99087.11;;;1.94;74.00
55801;BME280;41730;51.960;20.158;2023-02-26T02:42:56;99090.39;;;1.91;73.79
55801;BME280;41730;51.960;20.158;2023-02-26T02:45:36;99094.04;;;1.78;74.42
55801;BME280;41730;51.960;20.158;2023-02-26T02:48:12;99095.84;;;1.71;74.69
55801;BME280;41730;51.960;20.158;2023-02-26T02:50:47;99102.20;;;1.90;74.07
55801;BME280;41730;51.960;20.158;2023-02-26T02:53:22;99104.30;;;1.84;74.07
55801;BME280;41730;51.960;20.158;2023-02-26T02:55:57;99115.92;;;1.79;74.34
55801;BME280;41730;51.960;20.158;2023-02-26T02:58:34;99125.77;;;1.70;74.83
55801;BME280;41730;51.960;20.158;2023-02-26T03:01:12;99129.11;;;1.70;74.65
55801;BME280;41730;51.960;20.158;2023-02-26T03:03:53;99128.92;;;1.70;74.63
55801;BME280;41730;51.960;20.158;2023-02-26T03:06:29;99130.73;;;1.69;74.76
55801;BME280;41730;51.960;20.158;2023-02-26T03:09:03;99134.98;;;1.62;75.03
55801;BME280;41730;51.960;20.158;2023-02-26T03:11:36;99143.78;;;1.51;74.97
55801;BME280;41730;51.960;20.158;2023-02-26T03:14:12;99148.96;;;1.39;75.37
55801;BME280;41730;51.960;20.158;2023-02-26T03:17:04;99154.13;;;1.45;75.39
55801;BME280;41730;51.960;20.158;2023-02-26T03:19:52;99156.20;;;1.52;75.17
55801;BME280;41730;51.960;20.158;2023-02-26T03:22:31;99161.80;;;1.47;75.14
55801;BME280;41730;51.960;20.158;2023-02-26T03:25:11;99166.76;;;1.37;75.55
55801;BME280;41730;51.960;20.158;2023-02-26T03:27:50;99168.70;;;1.30;75.81
55801;BME280;41730;51.960;20.158;2023-02-26T03:30:33;99172.60;;;1.26;75.81
55801;BME280;41730;51.960;20.158;2023-02-26T03:33:08;99175.50;;;1.29;76.05
55801;BME280;41730;51.960;20.158;2023-02-26T03:35:50;99175.27;;;1.30;75.72
55801;BME280;41730;51.960;20.158;2023-02-26T03:38:30;99184.84;;;1.29;75.93
55801;BME280;41730;51.960;20.158;2023-02-26T03:41:08;99188.39;;;1.30;75.87
55801;BME280;41730;51.960;20.158;2023-02-26T03:43:46;99193.48;;;1.26;75.89
55801;BME280;41730;51.960;20.158;2023-02-26T03:46:25;99197.13;;;1.37;75.73
55801;BME280;41730;51.960;20.158;2023-02-26T03:49:05;99199.23;;;1.31;75.77
55801;BME280;41730;51.960;20.158;2023-02-26T03:51:39;99204.71;;;1.12;76.47
55801;BME280;41730;51.960;20.158;2023-02-26T03:54:18;99206.34;;;1.04;76.61
55801;BME280;41730;51.960;20.158;2023-02-26T03:56:52;99212.80;;;1.00;77.01
55801;BME280;41730;51.960;20.158;2023-02-26T03:59:25;99216.14;;;0.99;76.93
55801;BME280;41730;51.960;20.158;2023-02-26T04:02:01;99204.73;;;0.93;77.21
55801;BME280;41730;51.960;20.158;2023-02-26T04:04:38;99227.64;;;0.92;77.36
55801;BME280;41730;51.960;20.158;2023-02-26T04:07:13;99233.67;;;1.00;76.91
55801;BME280;41730;51.960;20.158;2023-02-26T04:09:48;99238.89;;;0.97;77.05
55801;BME280;41730;51.960;20.158;2023-02-26T04:12:24;99239.42;;;1.08;76.74
55801;BME280;41730;51.960;20.158;2023-02-26T04:14:59;99245.45;;;1.15;76.23
55801;BME280;41730;51.960;20.158;2023-02-26T04:17:31;99254.63;;;0.99;76.89
55801;BME280;41730;51.960;20.158;2023-02-26T04:20:08;99258.61;;;0.96;76.96
55801;BME280;41730;51.960;20.158;2023-02-26T04:22:43;99267.58;;;0.93;77.27
55801;BME280;41730;51.960;20.158;2023-02-26T04:25:15;99272.64;;;0.86;77.30
55801;BME280;41730;51.960;20.158;2023-02-26T04:27:52;99273.10;;;0.75;77.73
55801;BME280;41730;51.960;20.158;2023-02-26T04:37:55;99277.46;;;1.13;76.40
55801;BME280;41730;51.960;20.158;2023-02-26T04:40:30;99281.36;;;1.09;76.04
55801;BME280;41730;51.960;20.158;2023-02-26T04:43:08;99268.27;;;0.90;76.75
55801;BME280;41730;51.960;20.158;2023-02-26T04:45:40;99278.12;;;0.90;76.55
55801;BME280;41730;51.960;20.158;2023-02-26T04:48:12;99279.46;;;0.76;77.07
55801;BME280;41730;51.960;20.158;2023-02-26T04:50:46;99286.31;;;0.74;77.04
55801;BME280;41730;51.960;20.158;2023-02-26T04:53:18;99292.48;;;0.68;77.12
55801;BME280;41730;51.960;20.158;2023-02-26T04:55:53;99295.60;;;0.62;77.37
55801;BME280;41730;51.960;20.158;2023-02-26T04:58:25;99297.00;;;0.71;77.14
55801;BME280;41730;51.960;20.158;2023-02-26T05:00:59;99302.32;;;0.65;77.51
55801;BME280;41730;51.960;20.158;2023-02-26T05:03:31;99306.25;;;0.62;77.23
55801;BME280;41730;51.960;20.158;2023-02-26T05:06:04;99308.24;;;0.58;77.32
55801;BME280;41730;51.960;20.158;2023-02-26T05:08:38;99308.12;;;0.63;77.67
55801;BME280;41730;51.960;20.158;2023-02-26T05:11:13;99314.46;;;0.73;77.08
55801;BME280;41730;51.960;20.158;2023-02-26T05:13:45;99319.72;;;0.69;77.19
55801;BME280;41730;51.960;20.158;2023-02-26T05:16:18;99325.79;;;0.61;77.48
55801;BME280;41730;51.960;20.158;2023-02-26T05:18:50;99329.16;;;0.54;77.77
55801;BME280;41730;51.960;20.158;2023-02-26T05:21:22;99333.45;;;0.61;77.84
55801;BME280;41730;51.960;20.158;2023-02-26T05:23:55;99333.35;;;0.72;77.49
55801;BME280;41730;51.960;20.158;2023-02-26T05:26:27;99333.16;;;0.75;76.84
55801;BME280;41730;51.960;20.158;2023-02-26T05:29:02;99347.27;;;0.82;76.89
55801;BME280;41730;51.960;20.158;2023-02-26T05:31:36;99351.91;;;0.85;76.51
55801;BME280;41730;51.960;20.158;2023-02-26T05:34:08;99359.44;;;0.89;76.20
55801;BME280;41730;51.960;20.158;2023-02-26T05:36:45;99370.63;;;0.71;76.50
55801;BME280;41730;51.960;20.158;2023-02-26T05:39:18;99375.36;;;0.67;76.86
55801;BME280;41730;51.960;20.158;2023-02-26T05:41:50;99381.60;;;0.70;76.70
55801;BME280;41730;51.960;20.158;2023-02-26T05:44:25;99387.06;;;0.71;76.82
55801;BME280;41730;51.960;20.158;2023-02-26T05:46:58;99395.65;;;0.74;76.59
55801;BME280;41730;51.960;20.158;2023-02-26T05:49:30;99398.94;;;0.71;76.58
55801;BME280;41730;51.960;20.158;2023-02-26T05:52:02;99408.05;;;0.62;77.00
55801;BME280;41730;51.960;20.158;2023-02-26T05:54:36;99414.63;;;0.71;76.72
55801;BME280;41730;51.960;20.158;2023-02-26T05:57:08;99421.60;;;0.76;76.59
55801;BME280;41730;51.960;20.158;2023-02-26T05:59:40;99425.00;;;0.77;76.51
55801;BME280;41730;51.960;20.158;2023-02-26T06:02:12;99430.17;;;0.83;76.40
55801;BME280;41730;51.960;20.158;2023-02-26T06:04:45;99432.59;;;0.80;76.13
55801;BME280;41730;51.960;20.158;2023-02-26T06:07:17;99437.23;;;0.68;76.37
55801;BME280;41730;51.960;20.158;2023-02-26T06:09:49;99444.22;;;0.60;76.62
55801;BME280;41730;51.960;20.158;2023-02-26T06:12:20;99449.50;;;0.57;75.94
55801;BME280;41730;51.960;20.158;2023-02-26T06:14:53;99459.20;;;0.57;75.09
55801;BME280;41730;51.960;20.158;2023-02-26T06:17:24;99460.73;;;0.61;73.23
55801;BME280;41730;51.960;20.158;2023-02-26T06:19:57;99464.77;;;0.53;72.69
55801;BME280;41730;51.960;20.158;2023-02-26T06:22:32;99468.95;;;0.69;72.35
55801;BME280;41730;51.960;20.158;2023-02-26T06:25:07;99473.88;;;0.60;71.92
55801;BME280;41730;51.960;20.158;2023-02-26T06:27:43;99483.17;;;0.51;71.84
55801;BME280;41730;51.960;20.158;2023-02-26T06:30:19;99485.74;;;0.48;71.45
55801;BME280;41730;51.960;20.158;2023-02-26T06:32:53;99480.03;;;0.48;71.43
55801;BME280;41730;51.960;20.158;2023-02-26T06:35:25;99493.54;;;0.50;70.76
55801;BME280;41730;51.960;20.158;2023-02-26T06:37:59;99497.11;;;0.35;70.16
55801;BME280;41730;51.960;20.158;2023-02-26T06:40:33;99498.77;;;0.36;70.02
55801;BME280;41730;51.960;20.158;2023-02-26T06:43:05;99503.09;;;0.49;68.56
55801;BME280;41730;51.960;20.158;2023-02-26T06:45:37;99504.52;;;0.54;68.58
55801;BME280;41730;51.960;20.158;2023-02-26T06:48:13;99504.92;;;0.40;67.80
55801;BME280;41730;51.960;20.158;2023-02-26T06:50:46;99521.56;;;0.39;68.43
55801;BME280;41730;51.960;20.158;2023-02-26T06:53:23;99528.48;;;0.35;68.08
55801;BME280;41730;51.960;20.158;2023-02-26T06:55:55;99532.19;;;0.37;68.14
55801;BME280;41730;51.960;20.158;2023-02-26T06:58:29;99537.73;;;0.43;67.27
55801;BME280;41730;51.960;20.158;2023-02-26T07:01:01;99543.38;;;0.47;67.36
55801;BME280;41730;51.960;20.158;2023-02-26T07:03:33;99546.89;;;0.46;66.61
55801;BME280;41730;51.960;20.158;2023-02-26T07:06:08;99558.04;;;0.44;65.91
55801;BME280;41730;51.960;20.158;2023-02-26T07:09:01;99556.89;;;0.52;65.91
55801;BME280;41730;51.960;20.158;2023-02-26T07:11:33;99559.65;;;0.56;65.31
55801;BME280;41730;51.960;20.158;2023-02-26T07:14:05;99560.83;;;0.53;65.85
55801;BME280;41730;51.960;20.158;2023-02-26T07:16:37;99563.39;;;0.51;65.71
55801;BME280;41730;51.960;20.158;2023-02-26T07:19:12;99574.71;;;0.48;65.98
55801;BME280;41730;51.960;20.158;2023-02-26T07:21:47;99583.54;;;0.57;66.05
55801;BME280;41730;51.960;20.158;2023-02-26T07:24:19;99584.63;;;0.63;65.51
55801;BME280;41730;51.960;20.158;2023-02-26T07:26:53;99585.23;;;0.58;64.71
55801;BME280;41730;51.960;20.158;2023-02-26T07:29:25;99596.91;;;0.59;64.92
55801;BME280;41730;51.960;20.158;2023-02-26T07:31:58;99604.05;;;0.48;64.29
55801;BME280;41730;51.960;20.158;2023-02-26T07:34:30;99604.02;;;0.52;64.84
55801;BME280;41730;51.960;20.158;2023-02-26T07:37:03;99612.48;;;0.55;64.85
55801;BME280;41730;51.960;20.158;2023-02-26T07:39:35;99617.58;;;0.53;64.29
55801;BME280;41730;51.960;20.158;2023-02-26T07:42:07;99621.38;;;0.46;64.55
55801;BME280;41730;51.960;20.158;2023-02-26T07:44:41;99630.97;;;0.61;64.36
55801;BME280;41730;51.960;20.158;2023-02-26T07:47:15;99638.89;;;0.69;64.66
55801;BME280;41730;51.960;20.158;2023-02-26T07:49:47;99634.92;;;0.92;64.45
55801;BME280;41730;51.960;20.158;2023-02-26T07:52:19;99638.46;;;0.90;64.24
55801;BME280;41730;51.960;20.158;2023-02-26T07:54:51;99637.81;;;0.73;64.56
55801;BME280;41730;51.960;20.158;2023-02-26T07:57:23;99644.81;;;0.67;64.99
55801;BME280;41730;51.960;20.158;2023-02-26T08:00:00;99648.34;;;0.66;64.70
55801;BME280;41730;51.960;20.158;2023-02-26T08:02:38;99653.38;;;0.69;64.84
55801;BME280;41730;51.960;20.158;2023-02-26T08:05:13;99656.48;;;0.82;64.76
55801;BME280;41730;51.960;20.158;2023-02-26T08:07:50;99657.57;;;0.81;64.63
55801;BME280;41730;51.960;20.158;2023-02-26T08:10:26;99675.50;;;0.91;64.71
55801;BME280;41730;51.960;20.158;2023-02-26T08:13:01;99680.69;;;0.91;65.15
55801;BME280;41730;51.960;20.158;2023-02-26T08:15:33;99678.82;;;1.04;65.03
55801;BME280;41730;51.960;20.158;2023-02-26T08:18:12;99671.19;;;1.12;64.70
55801;BME280;41730;51.960;20.158;2023-02-26T08:20:44;99677.51;;;1.13;63.89
55801;BME280;41730;51.960;20.158;2023-02-26T08:23:16;99683.80;;;1.08;63.96
55801;BME280;41730;51.960;20.158;2023-02-26T08:25:48;99681.76;;;1.04;64.28
55801;BME280;41730;51.960;20.158;2023-02-26T08:28:20;99686.25;;;1.00;64.35
55801;BME280;41730;51.960;20.158;2023-02-26T08:30:55;99682.40;;;0.92;63.97
55801;BME280;41730;51.960;20.158;2023-02-26T08:33:28;99694.71;;;0.90;64.34
55801;BME280;41730;51.960;20.158;2023-02-26T08:36:00;99692.06;;;0.95;64.43
55801;BME280;41730;51.960;20.158;2023-02-26T08:38:34;99700.63;;;1.03;64.66
55801;BME280;41730;51.960;20.158;2023-02-26T08:41:06;99707.05;;;1.19;64.41
55801;BME280;41730;51.960;20.158;2023-02-26T08:43:39;99699.48;;;1.06;64.43
55801;BME280;41730;51.960;20.158;2023-02-26T08:46:11;99712.61;;;1.05;64.37
55801;BME280;41730;51.960;20.158;2023-02-26T08:48:44;99717.98;;;1.12;63.79
55801;BME280;41730;51.960;20.158;2023-02-26T08:51:18;99719.08;;;1.14;64.09
55801;BME280;41730;51.960;20.158;2023-02-26T08:53:50;99724.04;;;1.18;63.55
55801;BME280;41730;51.960;20.158;2023-02-26T08:56:22;99733.17;;;1.15;63.63
55801;BME280;41730;51.960;20.158;2023-02-26T08:58:58;99736.80;;;1.15;63.93
55801;BME280;41730;51.960;20.158;2023-02-26T09:01:30;99745.38;;;1.13;64.26
55801;BME280;41730;51.960;20.158;2023-02-26T09:04:02;99747.94;;;1.20;64.02
55801;BME280;41730;51.960;20.158;2023-02-26T09:06:34;99749.52;;;1.19;63.82
55801;BME280;41730;51.960;20.158;2023-02-26T09:09:06;99754.58;;;1.15;64.35
55801;BME280;41730;51.960;20.158;2023-02-26T09:11:39;99760.73;;;1.13;64.38
55801;BME280;41730;51.960;20.158;2023-02-26T09:14:11;99762.25;;;1.20;64.36
55801;BME280;41730;51.960;20.158;2023-02-26T09:16:43;99766.97;;;1.29;63.82
55801;BME280;41730;51.960;20.158;2023-02-26T09:19:16;99772.59;;;1.41;63.20
55801;BME280;41730;51.960;20.158;2023-02-26T09:21:48;99778.46;;;1.47;62.98
55801;BME280;41730;51.960;20.158;2023-02-26T09:24:21;99778.46;;;1.51;61.91
55801;BME280;41730;51.960;20.158;2023-02-26T09:26:56;99782.80;;;1.47;61.89
55801;BME280;41730;51.960;20.158;2023-02-26T09:29:29;99785.53;;;1.44;62.23
55801;BME280;41730;51.960;20.158;2023-02-26T09:32:02;99793.08;;;1.42;61.90
55801;BME280;41730;51.960;20.158;2023-02-26T09:34:34;99796.16;;;1.36;62.40
55801;BME280;41730;51.960;20.158;2023-02-26T09:37:08;99800.48;;;1.26;61.99
55801;BME280;41730;51.960;20.158;2023-02-26T09:39:41;99803.43;;;1.29;62.58
55801;BME280;41730;51.960;20.158;2023-02-26T09:42:22;99807.29;;;1.44;62.68
55801;BME280;41730;51.960;20.158;2023-02-26T09:44:59;99815.03;;;1.56;62.00
55801;BME280;41730;51.960;20.158;2023-02-26T09:47:34;99819.56;;;1.55;62.04
55801;BME280;41730;51.960;20.158;2023-02-26T09:50:17;99821.69;;;1.57;61.99
55801;BME280;41730;51.960;20.158;2023-02-26T09:52:54;99825.34;;;1.63;62.27
55801;BME280;41730;51.960;20.158;2023-02-26T09:55:31;99827.89;;;1.61;62.13
55801;BME280;41730;51.960;20.158;2023-02-26T09:58:09;99826.90;;;1.63;61.85
55801;BME280;41730;51.960;20.158;2023-02-26T10:00:49;99841.36;;;1.67;61.69
55801;BME280;41730;51.960;20.158;2023-02-26T10:03:29;99842.34;;;1.69;61.87
55801;BME280;41730;51.960;20.158;2023-02-26T10:06:20;99843.88;;;1.62;61.93
55801;BME280;41730;51.960;20.158;2023-02-26T10:12:01;99850.16;;;1.61;62.72
55801;BME280;41730;51.960;20.158;2023-02-26T10:14:40;99854.39;;;1.76;62.28
55801;BME280;41730;51.960;20.158;2023-02-26T10:17:19;99860.98;;;1.76;61.93
55801;BME280;41730;51.960;20.158;2023-02-26T10:19:56;99864.20;;;1.74;61.80
55801;BME280;41730;51.960;20.158;2023-02-26T10:22:35;99867.83;;;1.74;61.55
55801;BME280;41730;51.960;20.158;2023-02-26T10:25:12;99873.33;;;1.71;61.84
55801;BME280;41730;51.960;20.158;2023-02-26T10:27:54;99874.20;;;1.84;61.11
55801;BME280;41730;51.960;20.158;2023-02-26T10:30:35;99879.61;;;1.83;60.95
55801;BME280;41730;51.960;20.158;2023-02-26T10:33:16;99886.94;;;1.85;61.05
55801;BME280;41730;51.960;20.158;2023-02-26T10:35:55;99885.52;;;2.00;60.17
55801;BME280;41730;51.960;20.158;2023-02-26T10:38:31;99886.85;;;2.00;59.66
55801;BME280;41730;51.960;20.158;2023-02-26T10:41:07;99885.65;;;2.03;58.98
55801;BME280;41730;51.960;20.158;2023-02-26T10:43:42;99890.10;;;2.01;58.68
55801;BME280;41730;51.960;20.158;2023-02-26T10:46:28;99894.64;;;2.07;58.13
55801;BME280;41730;51.960;20.158;2023-02-26T10:49:39;99898.88;;;2.02;58.33
55801;BME280;41730;51.960;20.158;2023-02-26T10:52:16;99906.19;;;1.91;58.44
55801;BME280;41730;51.960;20.158;2023-02-26T10:55:00;99913.86;;;1.83;58.99
55801;BME280;41730;51.960;20.158;2023-02-26T10:57:33;99917.01;;;1.82;59.19
55801;BME280;41730;51.960;20.158;2023-02-26T11:00:18;99920.92;;;1.90;59.33
55801;BME280;41730;51.960;20.158;2023-02-26T11:02:52;99921.68;;;1.92;59.29
55801;BME280;41730;51.960;20.158;2023-02-26T11:05:26;99921.48;;;1.93;58.51
55801;BME280;41730;51.960;20.158;2023-02-26T11:08:03;99920.74;;;1.86;57.92
55801;BME280;41730;51.960;20.158;2023-02-26T11:11:01;99932.11;;;1.94;57.99
55801;BME280;41730;51.960;20.158;2023-02-26T11:13:48;99927.39;;;2.02;56.83
55801;BME280;41730;51.960;20.158;2023-02-26T11:16:19;99932.95;;;1.98;56.62
55801;BME280;41730;51.960;20.158;2023-02-26T11:18:54;99936.63;;;1.94;56.64
55801;BME280;41730;51.960;20.158;2023-02-26T11:21:39;99935.52;;;2.09;56.35
55801;BME280;41730;51.960;20.158;2023-02-26T11:24:15;99939.55;;;2.14;55.67
55801;BME280;41730;51.960;20.158;2023-02-26T11:26:50;99942.08;;;2.12;55.73
55801;BME280;41730;51.960;20.158;2023-02-26T11:29:26;99947.35;;;2.24;56.38
55801;BME280;41730;51.960;20.158;2023-02-26T11:32:03;99956.09;;;2.29;55.55
55801;BME280;41730;51.960;20.158;2023-02-26T11:34:37;99956.02;;;2.24;55.00
55801;BME280;41730;51.960;20.158;2023-02-26T11:37:13;99963.59;;;2.15;54.81
55801;BME280;41730;51.960;20.158;2023-02-26T11:39:55;99963.23;;;2.08;54.73
55801;BME280;41730;51.960;20.158;2023-02-26T11:42:28;99970.31;;;2.18;54.83
55801;BME280;41730;51.960;20.158;2023-02-26T11:45:03;99975.27;;;2.23;54.96
55801;BME280;41730;51.960;20.158;2023-02-26T11:47:39;99978.10;;;2.21;55.11
55801;BME280;41730;51.960;20.158;2023-02-26T11:50:17;99984.72;;;2.20;55.25
55801;BME280;41730;51.960;20.158;2023-02-26T11:52:56;99982.74;;;2.12;55.17
55801;BME280;41730;51.960;20.158;2023-02-26T11:55:31;99988.36;;;2.10;55.58
55801;BME280;41730;51.960;20.158;2023-02-26T11:58:18;99994.38;;;2.14;56.18
55801;BME280;41730;51.960;20.158;2023-02-26T12:00:59;99995.17;;;2.26;55.95
55801;BME280;41730;51.960;20.158;2023-02-26T12:03:35;100000.85;;;2.37;55.97
55801;BME280;41730;51.960;20.158;2023-02-26T12:06:16;100002.88;;;2.38;56.11
55801;BME280;41730;51.960;20.158;2023-02-26T12:08:49;100010.80;;;2.42;55.85
55801;BME280;41730;51.960;20.158;2023-02-26T12:11:43;100016.30;;;2.35;55.63
55801;BME280;41730;51.960;20.158;2023-02-26T12:14:49;100020.02;;;2.37;55.11
55801;BME280;41730;51.960;20.158;2023-02-26T12:17:34;100024.34;;;2.37;53.88
55801;BME280;41730;51.960;20.158;2023-02-26T12:20:22;100023.29;;;2.24;54.04
55801;BME280;41730;51.960;20.158;2023-02-26T12:23:18;100021.95;;;2.20;53.64
55801;BME280;41730;51.960;20.158;2023-02-26T12:26:02;100025.65;;;2.35;53.44
55801;BME280;41730;51.960;20.158;2023-02-26T12:29:17;100029.89;;;2.57;52.51
55801;BME280;41730;51.960;20.158;2023-02-26T12:32:15;100029.61;;;2.55;52.72
55801;BME280;41730;51.960;20.158;2023-02-26T12:38:00;100025.70;;;2.54;52.22
55801;BME280;41730;51.960;20.158;2023-02-26T12:40:48;100029.17;;;2.57;52.08
55801;BME280;41730;51.960;20.158;2023-02-26T12:43:29;100025.06;;;2.46;52.90
55801;BME280;41730;51.960;20.158;2023-02-26T12:46:18;100033.61;;;2.49;52.96
55801;BME280;41730;51.960;20.158;2023-02-26T12:49:10;100030.00;;;2.45;53.30
55801;BME280;41730;51.960;20.158;2023-02-26T12:51:51;100041.28;;;2.54;53.40
55801;BME280;41730;51.960;20.158;2023-02-26T12:54:46;100044.63;;;2.63;53.69
55801;BME280;41730;51.960;20.158;2023-02-26T13:00:44;100048.46;;;2.69;53.92
55801;BME280;41730;51.960;20.158;2023-02-26T13:04:02;100049.41;;;2.67;54.20
55801;BME280;41730;51.960;20.158;2023-02-26T13:07:04;100052.34;;;2.68;54.69
55801;BME280;41730;51.960;20.158;2023-02-26T13:09:49;100050.75;;;2.65;54.76
55801;BME280;41730;51.960;20.158;2023-02-26T13:12:35;100044.46;;;2.63;54.81
55801;BME280;41730;51.960;20.158;2023-02-26T13:15:32;100057.77;;;2.70;55.00
55801;BME280;41730;51.960;20.158;2023-02-26T13:18:13;100056.80;;;2.78;55.30
55801;BME280;41730;51.960;20.158;2023-02-26T13:20:53;100059.11;;;2.93;55.06
55801;BME280;41730;51.960;20.158;2023-02-26T13:23:33;100061.28;;;3.02;55.13
55801;BME280;41730;51.960;20.158;2023-02-26T13:26:10;100064.77;;;2.98;55.34
55801;BME280;41730;51.960;20.158;2023-02-26T13:28:51;100069.00;;;2.90;55.28
55801;BME280;41730;51.960;20.158;2023-02-26T13:31:28;100075.22;;;2.97;55.28
55801;BME280;41730;51.960;20.158;2023-02-26T13:34:12;100079.14;;;3.01;55.03
55801;BME280;41730;51.960;20.158;2023-02-26T13:36:49;100080.02;;;2.88;55.47
55801;BME280;41730;51.960;20.158;2023-02-26T13:39:44;100085.86;;;2.82;56.06
55801;BME280;41730;51.960;20.158;2023-02-26T13:42:28;100085.01;;;2.98;56.17
55801;BME280;41730;51.960;20.158;2023-02-26T13:48:12;100088.92;;;2.96;56.08
55801;BME280;41730;51.960;20.158;2023-02-26T13:50:59;100088.02;;;2.84;56.31
55801;BME280;41730;51.960;20.158;2023-02-26T13:54:06;100084.77;;;2.83;56.70
55801;BME280;41730;51.960;20.158;2023-02-26T13:56:51;100086.66;;;2.87;56.99
55801;BME280;41730;51.960;20.158;2023-02-26T13:59:45;100096.76;;;2.89;57.18
55801;BME280;41730;51.960;20.158;2023-02-26T14:02:47;100106.56;;;3.03;57.20
55801;BME280;41730;51.960;20.158;2023-02-26T14:05:54;100104.70;;;3.19;57.04
55801;BME280;41730;51.960;20.158;2023-02-26T14:08:51;100110.46;;;3.15;57.16
55801;BME280;41730;51.960;20.158;2023-02-26T14:14:26;100108.05;;;3.14;57.37
55801;BME280;41730;51.960;20.158;2023-02-26T14:17:29;100098.73;;;3.07;57.58
55801;BME280;41730;51.960;20.158;2023-02-26T14:20:25;100112.71;;;3.11;57.69